createdAt,value
2018-08-23T00:00:48.409Z,1011.86
2018-08-23T00:01:47.797Z,1011.85
2018-08-23T00:02:47.726Z,1011.86
2018-08-23T00:03:48.408Z,1011.86
2018-08-23T00:04:48.418Z,1011.84
2018-08-23T00:05:47.648Z,1011.82
2018-08-23T00:06:47.675Z,1011.83
2018-08-23T00:07:47.619Z,1011.84
2018-08-23T00:08:47.639Z,1011.82
2018-08-23T00:09:47.966Z,1011.78
2018-08-23T00:10:48.409Z,1011.84
2018-08-23T00:11:47.955Z,1011.83
2018-08-23T00:12:47.475Z,1011.81
2018-08-23T00:13:47.459Z,1011.82
2018-08-23T00:14:47.425Z,1011.86
2018-08-23T00:15:47.445Z,1011.83
2018-08-23T00:16:47.427Z,1011.79
2018-08-23T00:17:47.345Z,1011.81
2018-08-23T00:18:47.322Z,1011.77
2018-08-23T00:19:47.464Z,1011.79
2018-08-23T00:20:47.266Z,1011.80
2018-08-23T00:21:47.248Z,1011.75
2018-08-23T00:22:47.462Z,1011.78
2018-08-23T00:23:47.200Z,1011.74
2018-08-23T00:24:47.172Z,1011.79
2018-08-23T00:25:47.158Z,1011.76
2018-08-23T00:26:47.481Z,1011.73
2018-08-23T00:27:47.092Z,1011.72
2018-08-23T00:28:47.068Z,1011.70
2018-08-23T00:29:47.919Z,1011.72
2018-08-23T00:30:47.022Z,1011.74
2018-08-23T00:31:47.045Z,1011.72
2018-08-23T00:32:46.961Z,1011.72
2018-08-23T00:33:46.939Z,1011.71
2018-08-23T00:34:46.958Z,1011.69
2018-08-23T00:35:47.418Z,1011.72
2018-08-23T00:36:47.420Z,1011.70
2018-08-23T00:37:46.843Z,1011.69
2018-08-23T00:38:47.413Z,1011.67
2018-08-23T00:39:46.832Z,1011.64
2018-08-23T00:40:46.759Z,1011.66
2018-08-23T00:41:46.737Z,1011.63
2018-08-23T00:42:47.418Z,1011.62
2018-08-23T00:43:47.427Z,1011.63
2018-08-23T00:44:46.704Z,1011.62
2018-08-23T00:45:47.422Z,1011.61
2018-08-23T00:46:46.630Z,1011.59
2018-08-23T00:47:47.429Z,1011.60
2018-08-23T00:48:46.557Z,1011.61
2018-08-23T00:49:46.974Z,1011.60
2018-08-23T00:50:46.503Z,1011.59
2018-08-23T00:51:47.418Z,1011.58
2018-08-23T00:52:46.965Z,1011.57
2018-08-23T00:53:47.414Z,1011.54
2018-08-23T00:54:46.403Z,1011.56
2018-08-23T00:55:46.919Z,1011.57
2018-08-23T00:56:46.352Z,1011.54
2018-08-23T00:57:46.466Z,1011.58
2018-08-23T00:58:46.300Z,1011.59
2018-08-23T00:59:46.279Z,1011.59
2018-08-23T01:00:46.294Z,1011.61
2018-08-23T01:01:46.224Z,1011.60
2018-08-23T01:02:46.918Z,1011.57
2018-08-23T01:03:46.217Z,1011.58
2018-08-23T01:04:46.950Z,1011.55
2018-08-23T01:05:46.123Z,1011.56
2018-08-23T01:06:46.099Z,1011.58
2018-08-23T01:07:46.069Z,1011.57
2018-08-23T01:08:46.087Z,1011.58
2018-08-23T01:09:46.019Z,1011.60
2018-08-23T01:10:46.037Z,1011.55
2018-08-23T01:11:45.970Z,1011.56
2018-08-23T01:12:45.944Z,1011.53
2018-08-23T01:13:46.423Z,1011.52
2018-08-23T01:14:45.890Z,1011.49
2018-08-23T01:15:45.913Z,1011.49
2018-08-23T01:16:45.839Z,1011.50
2018-08-23T01:17:46.423Z,1011.48
2018-08-23T01:18:46.422Z,1011.47
2018-08-23T01:19:45.820Z,1011.43
2018-08-23T01:20:46.420Z,1011.42
2018-08-23T01:21:45.714Z,1011.43
2018-08-23T01:22:45.687Z,1011.40
2018-08-23T01:23:45.704Z,1011.41
2018-08-23T01:24:45.634Z,1011.41
2018-08-23T01:25:46.427Z,1011.43
2018-08-23T01:26:46.427Z,1011.39
2018-08-23T01:27:45.611Z,1011.40
2018-08-23T01:28:45.976Z,1011.35
2018-08-23T01:29:45.510Z,1011.36
2018-08-23T01:30:45.484Z,1011.36
2018-08-23T01:31:46.422Z,1011.37
2018-08-23T01:32:45.477Z,1011.33
2018-08-23T01:33:45.405Z,1011.33
2018-08-23T01:34:45.929Z,1011.32
2018-08-23T01:35:45.396Z,1011.29
2018-08-23T01:36:45.921Z,1011.31
2018-08-23T01:37:45.930Z,1011.27
2018-08-23T01:38:45.276Z,1011.25
2018-08-23T01:39:45.291Z,1011.26
2018-08-23T01:40:45.933Z,1011.24
2018-08-23T01:41:45.204Z,1011.23
2018-08-23T01:42:45.170Z,1011.21
2018-08-23T01:43:45.145Z,1011.22
2018-08-23T01:44:45.484Z,1011.22
2018-08-23T01:45:45.096Z,1011.21
2018-08-23T01:46:45.071Z,1011.19
2018-08-23T01:47:45.042Z,1011.19
2018-08-23T01:48:45.068Z,1011.18
2018-08-23T01:49:44.994Z,1011.15
2018-08-23T01:50:44.972Z,1011.15
2018-08-23T01:51:44.968Z,1011.17
2018-08-23T01:52:45.436Z,1011.16
2018-08-23T01:53:44.981Z,1011.18
2018-08-23T01:54:44.866Z,1011.13
2018-08-23T01:55:45.435Z,1011.15
2018-08-23T01:56:44.815Z,1011.14
2018-08-23T01:57:44.866Z,1011.16
2018-08-23T01:58:45.429Z,1011.14
2018-08-23T01:59:44.739Z,1011.13
2018-08-23T02:00:45.431Z,1011.11
2018-08-23T02:01:44.694Z,1011.13
2018-08-23T02:02:45.002Z,1011.08
2018-08-23T02:03:44.637Z,1011.09
2018-08-23T02:04:45.441Z,1011.07
2018-08-23T02:05:44.585Z,1011.05
2018-08-23T02:06:44.559Z,1011.07
2018-08-23T02:07:44.996Z,1011.05
2018-08-23T02:08:45.435Z,1011.07
2018-08-23T02:09:45.433Z,1011.04
2018-08-23T02:10:44.453Z,1011.06
2018-08-23T02:11:44.488Z,1011.03
2018-08-23T02:12:44.405Z,1011.01
2018-08-23T02:13:44.375Z,1011.00
2018-08-23T02:14:44.350Z,1011.00
2018-08-23T02:15:44.368Z,1011.00
2018-08-23T02:16:44.303Z,1011.00
2018-08-23T02:17:44.275Z,1010.99
2018-08-23T02:18:44.297Z,1010.98
2018-08-23T02:19:44.219Z,1010.97
2018-08-23T02:20:44.503Z,1011.01
2018-08-23T02:21:44.935Z,1010.98
2018-08-23T02:22:44.148Z,1010.97
2018-08-23T02:23:44.122Z,1010.95
2018-08-23T02:24:44.938Z,1010.92
2018-08-23T02:25:44.497Z,1010.94
2018-08-23T02:26:44.039Z,1010.92
2018-08-23T02:27:44.936Z,1010.92
2018-08-23T02:28:43.992Z,1010.93
2018-08-23T02:29:44.936Z,1010.90
2018-08-23T02:30:44.005Z,1010.90
2018-08-23T02:31:44.439Z,1010.92
2018-08-23T02:32:43.885Z,1010.89
2018-08-23T02:33:43.867Z,1010.87
2018-08-23T02:34:43.835Z,1010.87
2018-08-23T02:35:43.855Z,1010.88
2018-08-23T02:36:43.781Z,1010.84
2018-08-23T02:37:44.444Z,1010.84
2018-08-23T02:38:43.729Z,1010.83
2018-08-23T02:39:43.750Z,1010.85
2018-08-23T02:40:43.680Z,1010.83
2018-08-23T02:41:44.064Z,1010.84
2018-08-23T02:42:44.437Z,1010.85
2018-08-23T02:43:43.599Z,1010.85
2018-08-23T02:44:44.494Z,1010.84
2018-08-23T02:45:44.449Z,1010.81
2018-08-23T02:46:43.995Z,1010.80
2018-08-23T02:47:43.496Z,1010.81
2018-08-23T02:48:43.479Z,1010.79
2018-08-23T02:49:43.447Z,1010.83
2018-08-23T02:50:43.941Z,1010.82
2018-08-23T02:51:43.450Z,1010.85
2018-08-23T02:52:43.939Z,1010.81
2018-08-23T02:53:43.939Z,1010.81
2018-08-23T02:54:43.319Z,1010.79
2018-08-23T02:55:43.940Z,1010.78
2018-08-23T02:56:43.325Z,1010.75
2018-08-23T02:57:43.239Z,1010.80
2018-08-23T02:58:43.960Z,1010.77
2018-08-23T02:59:43.943Z,1010.75
2018-08-23T03:00:43.171Z,1010.77
2018-08-23T03:01:43.178Z,1010.76
2018-08-23T03:02:43.498Z,1010.73
2018-08-23T03:03:43.941Z,1010.72
2018-08-23T03:04:43.059Z,1010.74
2018-08-23T03:05:43.950Z,1010.76
2018-08-23T03:06:43.947Z,1010.73
2018-08-23T03:07:43.024Z,1010.75
2018-08-23T03:08:42.957Z,1010.76
2018-08-23T03:09:43.444Z,1010.78
2018-08-23T03:10:43.448Z,1010.79
2018-08-23T03:11:42.903Z,1010.74
2018-08-23T03:12:42.999Z,1010.77
2018-08-23T03:13:43.451Z,1010.79
2018-08-23T03:14:43.002Z,1010.79
2018-08-23T03:15:43.462Z,1010.75
2018-08-23T03:16:43.445Z,1010.77
2018-08-23T03:17:42.722Z,1010.76
2018-08-23T03:18:42.696Z,1010.78
2018-08-23T03:19:43.113Z,1010.77
2018-08-23T03:20:43.450Z,1010.78
2018-08-23T03:21:42.632Z,1010.74
2018-08-23T03:22:42.591Z,1010.74
2018-08-23T03:23:43.448Z,1010.72
2018-08-23T03:24:43.001Z,1010.70
2018-08-23T03:25:42.516Z,1010.67
2018-08-23T03:26:42.492Z,1010.71
2018-08-23T03:27:42.465Z,1010.63
2018-08-23T03:28:42.486Z,1010.68
2018-08-23T03:29:42.416Z,1010.65
2018-08-23T03:30:42.402Z,1010.59
2018-08-23T03:31:42.361Z,1010.61
2018-08-23T03:32:42.336Z,1010.65
2018-08-23T03:33:42.506Z,1010.61
2018-08-23T03:34:42.280Z,1010.64
2018-08-23T03:35:42.254Z,1010.65
2018-08-23T03:36:42.232Z,1010.67
2018-08-23T03:37:42.205Z,1010.66
2018-08-23T03:38:42.227Z,1010.68
2018-08-23T03:39:42.948Z,1010.71
2018-08-23T03:40:42.180Z,1010.71
2018-08-23T03:41:42.104Z,1010.72
2018-08-23T03:42:42.950Z,1010.69
2018-08-23T03:43:42.954Z,1010.71
2018-08-23T03:44:42.032Z,1010.68
2018-08-23T03:45:42.045Z,1010.66
2018-08-23T03:46:41.970Z,1010.70
2018-08-23T03:47:41.947Z,1010.66
2018-08-23T03:48:41.919Z,1010.65
2018-08-23T03:49:42.451Z,1010.68
2018-08-23T03:50:41.908Z,1010.64
2018-08-23T03:51:41.842Z,1010.65
2018-08-23T03:52:42.033Z,1010.67
2018-08-23T03:53:42.462Z,1010.66
2018-08-23T03:54:41.760Z,1010.66
2018-08-23T03:55:42.454Z,1010.63
2018-08-23T03:56:41.712Z,1010.62
2018-08-23T03:57:41.730Z,1010.67
2018-08-23T03:58:42.455Z,1010.64
2018-08-23T03:59:41.636Z,1010.68
2018-08-23T04:00:42.020Z,1010.64
2018-08-23T04:01:41.589Z,1010.66
2018-08-23T04:02:41.555Z,1010.62
2018-08-23T04:03:41.530Z,1010.63
2018-08-23T04:04:42.455Z,1010.64
2018-08-23T04:05:41.531Z,1010.62
2018-08-23T04:06:41.450Z,1010.60
2018-08-23T04:07:41.958Z,1010.64
2018-08-23T04:08:43.956Z,1010.61
2018-08-23T04:09:41.381Z,1010.62
2018-08-23T04:10:41.512Z,1010.62
2018-08-23T04:11:41.515Z,1010.67
2018-08-23T04:12:41.300Z,1010.65
2018-08-23T04:13:41.956Z,1010.65
2018-08-23T04:14:41.245Z,1010.62
2018-08-23T04:15:41.218Z,1010.63
2018-08-23T04:16:41.249Z,1010.63
2018-08-23T04:17:41.172Z,1010.60
2018-08-23T04:18:41.153Z,1010.63
2018-08-23T04:19:41.115Z,1010.60
2018-08-23T04:20:41.088Z,1010.58
2018-08-23T04:21:41.127Z,1010.60
2018-08-23T04:22:41.088Z,1010.61
2018-08-23T04:23:41.058Z,1010.58
2018-08-23T04:24:40.987Z,1010.57
2018-08-23T04:25:40.968Z,1010.62
2018-08-23T04:26:40.935Z,1010.62
2018-08-23T04:27:40.915Z,1010.62
2018-08-23T04:28:41.044Z,1010.59
2018-08-23T04:29:40.857Z,1010.60
2018-08-23T04:30:41.460Z,1010.59
2018-08-23T04:31:41.460Z,1010.61
2018-08-23T04:32:40.788Z,1010.61
2018-08-23T04:33:41.030Z,1010.60
2018-08-23T04:34:40.734Z,1010.62
2018-08-23T04:35:40.706Z,1010.61
2018-08-23T04:36:40.694Z,1010.63
2018-08-23T04:37:40.651Z,1010.64
2018-08-23T04:38:41.511Z,1010.63
2018-08-23T04:39:40.608Z,1010.60
2018-08-23T04:40:40.575Z,1010.62
2018-08-23T04:41:41.466Z,1010.62
2018-08-23T04:42:40.527Z,1010.62
2018-08-23T04:43:41.528Z,1010.60
2018-08-23T04:44:41.463Z,1010.61
2018-08-23T04:45:40.964Z,1010.57
2018-08-23T04:46:41.003Z,1010.60
2018-08-23T04:47:40.396Z,1010.59
2018-08-23T04:48:40.425Z,1010.58
2018-08-23T04:49:40.967Z,1010.59
2018-08-23T04:50:40.964Z,1010.60
2018-08-23T04:51:40.983Z,1010.58
2018-08-23T04:52:40.269Z,1010.58
2018-08-23T04:53:40.289Z,1010.57
2018-08-23T04:54:40.966Z,1010.57
2018-08-23T04:55:40.198Z,1010.54
2018-08-23T04:56:40.167Z,1010.53
2018-08-23T04:57:40.147Z,1010.52
2018-08-23T04:58:40.163Z,1010.52
2018-08-23T04:59:40.090Z,1010.55
2018-08-23T05:00:40.066Z,1010.54
2018-08-23T05:01:40.074Z,1010.52
2018-08-23T05:02:40.036Z,1010.56
2018-08-23T05:03:40.039Z,1010.53
2018-08-23T05:04:39.964Z,1010.50
2018-08-23T05:05:40.466Z,1010.50
2018-08-23T05:06:40.477Z,1010.48
2018-08-23T05:07:39.894Z,1010.44
2018-08-23T05:08:39.910Z,1010.45
2018-08-23T05:09:40.470Z,1010.45
2018-08-23T05:10:39.813Z,1010.48
2018-08-23T05:11:39.841Z,1010.49
2018-08-23T05:12:39.778Z,1010.50
2018-08-23T05:13:39.740Z,1010.53
2018-08-23T05:14:39.715Z,1010.50
2018-08-23T05:15:39.751Z,1010.50
2018-08-23T05:16:39.672Z,1010.49
2018-08-23T05:17:39.640Z,1010.43
2018-08-23T05:18:39.617Z,1010.40
2018-08-23T05:19:40.475Z,1010.44
2018-08-23T05:20:40.028Z,1010.44
2018-08-23T05:21:40.474Z,1010.44
2018-08-23T05:22:39.520Z,1010.40
2018-08-23T05:23:39.491Z,1010.38
2018-08-23T05:24:39.470Z,1010.40
2018-08-23T05:25:39.513Z,1010.37
2018-08-23T05:26:39.463Z,1010.40
2018-08-23T05:27:39.398Z,1010.37
2018-08-23T05:28:39.371Z,1010.40
2018-08-23T05:29:39.352Z,1010.42
2018-08-23T05:30:39.540Z,1010.40
2018-08-23T05:31:39.308Z,1010.35
2018-08-23T05:32:39.283Z,1010.39
2018-08-23T05:33:39.271Z,1010.35
2018-08-23T05:34:39.224Z,1010.37
2018-08-23T05:35:39.283Z,1010.35
2018-08-23T05:36:39.975Z,1010.38
2018-08-23T05:37:39.179Z,1010.34
2018-08-23T05:38:39.127Z,1010.37
2018-08-23T05:39:39.105Z,1010.38
2018-08-23T05:40:39.542Z,1010.37
2018-08-23T05:41:39.054Z,1010.33
2018-08-23T05:42:39.046Z,1010.34
2018-08-23T05:43:39.004Z,1010.30
2018-08-23T05:44:38.988Z,1010.29
2018-08-23T05:45:39.046Z,1010.31
2018-08-23T05:46:38.940Z,1010.27
2018-08-23T05:47:38.913Z,1010.28
2018-08-23T05:48:38.889Z,1010.30
2018-08-23T05:49:41.482Z,1010.30
2018-08-23T05:50:38.893Z,1010.30
2018-08-23T05:51:38.812Z,1010.26
2018-08-23T05:52:38.794Z,1010.26
2018-08-23T05:53:38.767Z,1010.28
2018-08-23T05:54:38.748Z,1010.21
2018-08-23T05:55:38.773Z,1010.21
2018-08-23T05:56:38.707Z,1010.21
2018-08-23T05:57:38.669Z,1010.23
2018-08-23T05:58:38.649Z,1010.18
2018-08-23T05:59:38.621Z,1010.21
2018-08-23T06:00:38.641Z,1010.20
2018-08-23T06:01:38.584Z,1010.19
2018-08-23T06:02:38.562Z,1010.17
2018-08-23T06:03:38.572Z,1010.17
2018-08-23T06:04:38.509Z,1010.16
2018-08-23T06:05:38.521Z,1010.17
2018-08-23T06:06:38.500Z,1010.17
2018-08-23T06:07:38.453Z,1010.16
2018-08-23T06:08:38.454Z,1010.14
2018-08-23T06:09:38.988Z,1010.11
2018-08-23T06:10:38.372Z,1010.13
2018-08-23T06:11:38.386Z,1010.13
2018-08-23T06:12:38.322Z,1010.12
2018-08-23T06:13:38.297Z,1010.10
2018-08-23T06:14:38.274Z,1010.07
2018-08-23T06:15:38.314Z,1010.07
2018-08-23T06:16:38.273Z,1010.02
2018-08-23T06:17:38.204Z,1010.01
2018-08-23T06:18:38.178Z,1010.04
2018-08-23T06:19:38.155Z,1010.02
2018-08-23T06:20:38.136Z,1010.05
2018-08-23T06:21:38.160Z,1009.98
2018-08-23T06:22:38.085Z,1010.01
2018-08-23T06:23:38.065Z,1009.98
2018-08-23T06:24:38.041Z,1009.96
2018-08-23T06:25:38.068Z,1009.95
2018-08-23T06:26:38.044Z,1009.94
2018-08-23T06:27:37.974Z,1009.96
2018-08-23T06:28:37.952Z,1009.94
2018-08-23T06:29:37.979Z,1009.94
2018-08-23T06:30:37.959Z,1009.96
2018-08-23T06:31:37.881Z,1009.94
2018-08-23T06:32:37.865Z,1009.93
2018-08-23T06:33:37.912Z,1009.93
2018-08-23T06:34:37.854Z,1009.94
2018-08-23T06:35:37.938Z,1009.91
2018-08-23T06:36:37.819Z,1009.91
2018-08-23T06:37:37.751Z,1009.91
2018-08-23T06:38:37.732Z,1009.95
2018-08-23T06:39:38.489Z,1009.95
2018-08-23T06:40:38.045Z,1009.95
2018-08-23T06:41:37.687Z,1009.93
2018-08-23T06:42:37.637Z,1009.94
2018-08-23T06:43:37.613Z,1009.95
2018-08-23T06:44:37.651Z,1009.99
2018-08-23T06:45:38.048Z,1009.99
2018-08-23T06:46:37.551Z,1009.97
2018-08-23T06:47:37.527Z,1009.97
2018-08-23T06:48:37.516Z,1009.96
2018-08-23T06:49:37.484Z,1009.90
2018-08-23T06:50:37.508Z,1009.97
2018-08-23T06:51:37.546Z,1009.92
2018-08-23T06:52:37.467Z,1009.94
2018-08-23T06:53:37.396Z,1009.93
2018-08-23T06:54:37.377Z,1009.89
2018-08-23T06:55:37.356Z,1009.91
2018-08-23T06:56:37.407Z,1009.93
2018-08-23T06:57:37.355Z,1009.93
2018-08-23T06:58:37.302Z,1009.96
2018-08-23T06:59:37.266Z,1009.89
2018-08-23T07:00:37.249Z,1009.89
2018-08-23T07:01:37.269Z,1009.91
2018-08-23T07:02:37.200Z,1009.90
2018-08-23T07:03:37.180Z,1009.87
2018-08-23T07:04:37.161Z,1009.87
2018-08-23T07:05:37.191Z,1009.87
2018-08-23T07:06:37.136Z,1009.86
2018-08-23T07:07:37.138Z,1009.87
2018-08-23T07:08:37.998Z,1009.82
2018-08-23T07:09:37.054Z,1009.83
2018-08-23T07:10:37.036Z,1009.84
2018-08-23T07:11:37.014Z,1009.82
2018-08-23T07:12:37.047Z,1009.82
2018-08-23T07:13:36.968Z,1009.81
2018-08-23T07:14:37.501Z,1009.74
2018-08-23T07:15:36.931Z,1009.77
2018-08-23T07:16:36.909Z,1009.79
2018-08-23T07:17:37.104Z,1009.80
2018-08-23T07:18:37.500Z,1009.78
2018-08-23T07:19:36.842Z,1009.78
2018-08-23T07:20:36.824Z,1009.75
2018-08-23T07:21:36.806Z,1009.74
2018-08-23T07:22:36.826Z,1009.77
2018-08-23T07:23:36.760Z,1009.78
2018-08-23T07:24:36.739Z,1009.78
2018-08-23T07:25:36.719Z,1009.80
2018-08-23T07:26:36.725Z,1009.77
2018-08-23T07:27:36.721Z,1009.82
2018-08-23T07:28:36.656Z,1009.77
2018-08-23T07:29:37.507Z,1009.82
2018-08-23T07:30:36.662Z,1009.82
2018-08-23T07:31:36.640Z,1009.79
2018-08-23T07:32:36.580Z,1009.85
2018-08-23T07:33:36.581Z,1009.83
2018-08-23T07:34:37.509Z,1009.86
2018-08-23T07:35:36.516Z,1009.87
2018-08-23T07:36:36.539Z,1009.85
2018-08-23T07:37:36.520Z,1009.85
2018-08-23T07:38:36.455Z,1009.85
2018-08-23T07:39:36.435Z,1009.84
2018-08-23T07:40:36.419Z,1009.84
2018-08-23T07:41:36.441Z,1009.86
2018-08-23T07:42:36.377Z,1009.84
2018-08-23T07:43:36.363Z,1009.86
2018-08-23T07:44:36.337Z,1009.82
2018-08-23T07:45:36.315Z,1009.82
2018-08-23T07:46:36.348Z,1009.82
2018-08-23T07:47:36.281Z,1009.85
2018-08-23T07:48:36.362Z,1009.84
2018-08-23T07:49:36.235Z,1009.85
2018-08-23T07:50:36.224Z,1009.82
2018-08-23T07:51:36.203Z,1009.84
2018-08-23T07:52:36.224Z,1009.87
2018-08-23T07:53:36.160Z,1009.84
2018-08-23T07:54:36.143Z,1009.84
2018-08-23T07:55:36.121Z,1009.83
2018-08-23T07:56:36.139Z,1009.80
2018-08-23T07:57:36.126Z,1009.81
2018-08-23T07:58:36.057Z,1009.81
2018-08-23T07:59:36.041Z,1009.78
2018-08-23T08:00:36.069Z,1009.78
2018-08-23T08:01:35.997Z,1009.76
2018-08-23T08:02:35.983Z,1009.76
2018-08-23T08:03:35.962Z,1009.79
2018-08-23T08:04:35.986Z,1009.76
2018-08-23T08:05:35.921Z,1009.71
2018-08-23T08:06:35.899Z,1009.77
2018-08-23T08:07:36.520Z,1009.73
2018-08-23T08:08:35.911Z,1009.73
2018-08-23T08:09:35.843Z,1009.71
2018-08-23T08:10:35.826Z,1009.74
2018-08-23T08:11:35.802Z,1009.73
2018-08-23T08:12:35.793Z,1009.71
2018-08-23T08:13:36.106Z,1009.73
2018-08-23T08:14:35.749Z,1009.68
2018-08-23T08:15:36.520Z,1009.71
2018-08-23T08:16:35.704Z,1009.71
2018-08-23T08:17:35.688Z,1009.67
2018-08-23T08:18:35.711Z,1009.68
2018-08-23T08:19:35.658Z,1009.71
2018-08-23T08:20:35.628Z,1009.70
2018-08-23T08:21:36.540Z,1009.67
2018-08-23T08:22:35.626Z,1009.69
2018-08-23T08:23:35.571Z,1009.72
2018-08-23T08:24:35.615Z,1009.70
2018-08-23T08:25:35.532Z,1009.69
2018-08-23T08:26:35.513Z,1009.71
2018-08-23T08:27:35.500Z,1009.70
2018-08-23T08:28:35.474Z,1009.73
2018-08-23T08:29:35.506Z,1009.73
2018-08-23T08:30:35.438Z,1009.67
2018-08-23T08:31:35.466Z,1009.71
2018-08-23T08:32:36.023Z,1009.69
2018-08-23T08:33:35.379Z,1009.70
2018-08-23T08:34:35.361Z,1009.71
2018-08-23T08:35:35.411Z,1009.71
2018-08-23T08:36:36.022Z,1009.69
2018-08-23T08:37:35.304Z,1009.71
2018-08-23T08:38:35.332Z,1009.73
2018-08-23T08:39:35.269Z,1009.67
2018-08-23T08:40:36.032Z,1009.69
2018-08-23T08:41:35.270Z,1009.65
2018-08-23T08:42:35.211Z,1009.64
2018-08-23T08:43:35.241Z,1009.63
2018-08-23T08:44:35.172Z,1009.61
2018-08-23T08:45:35.150Z,1009.62
2018-08-23T08:46:35.136Z,1009.62
2018-08-23T08:47:35.129Z,1009.62
2018-08-23T08:48:35.144Z,1009.58
2018-08-23T08:49:35.079Z,1009.59
2018-08-23T08:50:35.220Z,1009.57
2018-08-23T08:51:35.039Z,1009.54
2018-08-23T08:52:35.023Z,1009.50
2018-08-23T08:53:35.533Z,1009.50
2018-08-23T08:54:35.531Z,1009.51
2018-08-23T08:55:35.008Z,1009.44
2018-08-23T08:56:35.003Z,1009.46
2018-08-23T08:57:34.950Z,1009.42
2018-08-23T08:58:34.913Z,1009.42
2018-08-23T08:59:34.969Z,1009.42
2018-08-23T09:00:34.927Z,1009.37
2018-08-23T09:01:34.860Z,1009.39
2018-08-23T09:02:34.853Z,1009.35
2018-08-23T09:03:34.827Z,1009.34
2018-08-23T09:04:35.533Z,1009.32
2018-08-23T09:05:34.827Z,1009.29
2018-08-23T09:06:34.762Z,1009.33
2018-08-23T09:07:34.748Z,1009.28
2018-08-23T09:08:34.730Z,1009.30
2018-08-23T09:09:35.091Z,1009.28
2018-08-23T09:10:34.730Z,1009.23
2018-08-23T09:11:34.674Z,1009.23
2018-08-23T09:12:34.660Z,1009.21
2018-08-23T09:13:34.657Z,1009.16
2018-08-23T09:14:34.669Z,1009.16
2018-08-23T09:15:34.646Z,1009.16
2018-08-23T09:16:34.584Z,1009.16
2018-08-23T09:17:34.570Z,1009.11
2018-08-23T09:18:34.576Z,1009.15
2018-08-23T09:19:34.533Z,1009.11
2018-08-23T09:20:34.597Z,1009.10
2018-08-23T09:21:34.496Z,1009.14
2018-08-23T09:22:35.039Z,1009.09
2018-08-23T09:23:34.463Z,1009.07
2018-08-23T09:24:34.443Z,1009.03
2018-08-23T09:25:34.483Z,1009.03
2018-08-23T09:26:34.404Z,1009.00
2018-08-23T09:27:34.387Z,1009.03
2018-08-23T09:28:34.369Z,1008.98
2018-08-23T09:29:34.356Z,1008.95
2018-08-23T09:30:34.380Z,1008.94
2018-08-23T09:31:34.327Z,1008.92
2018-08-23T09:32:34.300Z,1008.91
2018-08-23T09:33:34.287Z,1008.89
2018-08-23T09:34:34.267Z,1008.89
2018-08-23T09:35:34.612Z,1008.85
2018-08-23T09:36:34.239Z,1008.85
2018-08-23T09:37:34.212Z,1008.79
2018-08-23T09:38:34.194Z,1008.79
2018-08-23T09:39:34.179Z,1008.81
2018-08-23T09:40:34.208Z,1008.77
2018-08-23T09:41:34.150Z,1008.79
2018-08-23T09:42:34.130Z,1008.78
2018-08-23T09:43:34.107Z,1008.76
2018-08-23T09:44:35.051Z,1008.73
2018-08-23T09:45:34.600Z,1008.71
2018-08-23T09:46:34.054Z,1008.73
2018-08-23T09:47:34.037Z,1008.70
2018-08-23T09:48:34.023Z,1008.67
2018-08-23T09:49:34.002Z,1008.70
2018-08-23T09:50:34.071Z,1008.72
2018-08-23T09:51:33.980Z,1008.63
2018-08-23T09:52:33.962Z,1008.62
2018-08-23T09:53:34.548Z,1008.63
2018-08-23T09:54:33.915Z,1008.62
2018-08-23T09:55:33.943Z,1008.59
2018-08-23T09:56:33.940Z,1008.58
2018-08-23T09:57:33.870Z,1008.57
2018-08-23T09:58:33.896Z,1008.49
2018-08-23T09:59:33.829Z,1008.47
2018-08-23T10:00:33.815Z,1008.48
2018-08-23T10:01:33.797Z,1008.48
2018-08-23T10:02:33.779Z,1008.49
2018-08-23T10:03:33.812Z,1008.47
2018-08-23T10:04:33.816Z,1008.45
2018-08-23T10:05:33.729Z,1008.46
2018-08-23T10:06:33.708Z,1008.43
2018-08-23T10:07:33.703Z,1008.43
2018-08-23T10:08:33.719Z,1008.39
2018-08-23T10:09:33.662Z,1008.41
2018-08-23T10:10:33.647Z,1008.38
2018-08-23T10:11:33.750Z,1008.36
2018-08-23T10:12:33.605Z,1008.38
2018-08-23T10:13:34.556Z,1008.37
2018-08-23T10:14:33.626Z,1008.35
2018-08-23T10:15:33.555Z,1008.37
2018-08-23T10:16:33.583Z,1008.35
2018-08-23T10:17:33.525Z,1008.29
2018-08-23T10:18:34.062Z,1008.33
2018-08-23T10:19:33.491Z,1008.29
2018-08-23T10:20:33.515Z,1008.30
2018-08-23T10:21:33.469Z,1008.30
2018-08-23T10:22:33.614Z,1008.24
2018-08-23T10:23:33.431Z,1008.24
2018-08-23T10:24:33.406Z,1008.23
2018-08-23T10:25:33.386Z,1008.22
2018-08-23T10:26:33.432Z,1008.22
2018-08-23T10:27:33.356Z,1008.22
2018-08-23T10:28:34.061Z,1008.20
2018-08-23T10:29:33.322Z,1008.22
2018-08-23T10:30:33.348Z,1008.17
2018-08-23T10:31:33.330Z,1008.16
2018-08-23T10:32:33.275Z,1008.11
2018-08-23T10:33:33.317Z,1008.16
2018-08-23T10:34:33.236Z,1008.12
2018-08-23T10:35:33.221Z,1008.09
2018-08-23T10:36:33.201Z,1008.07
2018-08-23T10:37:33.228Z,1008.09
2018-08-23T10:38:33.169Z,1008.08
2018-08-23T10:39:34.070Z,1008.08
2018-08-23T10:40:33.139Z,1008.03
2018-08-23T10:41:33.118Z,1008.02
2018-08-23T10:42:33.150Z,1008.02
2018-08-23T10:43:33.130Z,1008.02
2018-08-23T10:44:33.171Z,1007.95
2018-08-23T10:45:33.057Z,1007.93
2018-08-23T10:46:33.048Z,1007.92
2018-08-23T10:47:33.036Z,1007.90
2018-08-23T10:48:33.056Z,1007.91
2018-08-23T10:49:32.989Z,1007.89
2018-08-23T10:50:33.031Z,1007.90
2018-08-23T10:51:32.954Z,1007.88
2018-08-23T10:52:32.941Z,1007.82
2018-08-23T10:53:32.985Z,1007.84
2018-08-23T10:54:32.907Z,1007.84
2018-08-23T10:55:32.890Z,1007.90
2018-08-23T10:56:32.872Z,1007.84
2018-08-23T10:57:32.857Z,1007.81
2018-08-23T10:58:32.888Z,1007.78
2018-08-23T10:59:33.568Z,1007.80
2018-08-23T11:00:33.126Z,1007.82
2018-08-23T11:01:32.797Z,1007.78
2018-08-23T11:02:32.799Z,1007.80
2018-08-23T11:03:32.807Z,1007.76
2018-08-23T11:04:32.746Z,1007.76
2018-08-23T11:05:32.731Z,1007.79
2018-08-23T11:06:32.769Z,1007.73
2018-08-23T11:07:32.694Z,1007.73
2018-08-23T11:08:32.680Z,1007.69
2018-08-23T11:09:32.663Z,1007.67
2018-08-23T11:10:32.645Z,1007.64
2018-08-23T11:11:32.676Z,1007.62
2018-08-23T11:12:32.624Z,1007.62
2018-08-23T11:13:32.645Z,1007.63
2018-08-23T11:14:32.581Z,1007.65
2018-08-23T11:15:32.570Z,1007.63
2018-08-23T11:16:32.620Z,1007.65
2018-08-23T11:17:33.099Z,1007.64
2018-08-23T11:18:32.554Z,1007.57
2018-08-23T11:19:32.522Z,1007.62
2018-08-23T11:20:32.490Z,1007.63
2018-08-23T11:21:32.524Z,1007.53
2018-08-23T11:22:32.532Z,1007.56
2018-08-23T11:23:33.081Z,1007.53
2018-08-23T11:24:32.424Z,1007.51
2018-08-23T11:25:33.081Z,1007.49
2018-08-23T11:26:32.448Z,1007.47
2018-08-23T11:27:32.379Z,1007.47
2018-08-23T11:28:32.367Z,1007.48
2018-08-23T11:29:32.415Z,1007.47
2018-08-23T11:30:32.329Z,1007.47
2018-08-23T11:31:32.422Z,1007.48
2018-08-23T11:32:32.320Z,1007.48
2018-08-23T11:33:32.296Z,1007.47
2018-08-23T11:34:32.280Z,1007.45
2018-08-23T11:35:32.256Z,1007.45
2018-08-23T11:36:32.285Z,1007.48
2018-08-23T11:37:32.232Z,1007.38
2018-08-23T11:38:32.206Z,1007.36
2018-08-23T11:39:32.221Z,1007.29
2018-08-23T11:40:32.184Z,1007.26
2018-08-23T11:41:32.206Z,1007.27
2018-08-23T11:42:32.239Z,1007.27
2018-08-23T11:43:32.137Z,1007.23
2018-08-23T11:44:32.118Z,1007.20
2018-08-23T11:45:32.101Z,1007.23
2018-08-23T11:46:32.087Z,1007.25
2018-08-23T11:47:32.099Z,1007.23
2018-08-23T11:48:32.057Z,1007.28
2018-08-23T11:49:32.043Z,1007.23
2018-08-23T11:50:32.028Z,1007.19
2018-08-23T11:51:32.013Z,1007.22
2018-08-23T11:52:32.636Z,1007.26
2018-08-23T11:53:32.214Z,1007.25
2018-08-23T11:54:31.981Z,1007.23
2018-08-23T11:55:31.953Z,1007.25
2018-08-23T11:56:32.594Z,1007.26
2018-08-23T11:57:31.941Z,1007.24
2018-08-23T11:58:31.992Z,1007.17
2018-08-23T11:59:31.898Z,1007.16
2018-08-23T12:00:31.879Z,1007.12
2018-08-23T12:01:31.868Z,1007.12
2018-08-23T12:02:32.595Z,1007.14
2018-08-23T12:03:32.188Z,1007.13
2018-08-23T12:04:31.827Z,1007.11
2018-08-23T12:05:31.811Z,1007.05